sensor_id;sensor_type;location;lat;lon;timestamp;temperature;humidity
77305;DHT22;66364;52.622;7.746;2023-07-13T00:01:34;16.30;99.90
77305;DHT22;66364;52.622;7.746;2023-07-13T00:03:37;16.30;99.90
77305;DHT22;66364;52.622;7.746;2023-07-13T00:05:40;16.20;99.90
77305;DHT22;66364;52.622;7.746;2023-07-13T00:07:42;16.10;99.90
77305;DHT22;66364;52.622;7.746;2023-07-13T00:09:46;16.10;99.90
77305;DHT22;66364;52.622;7.746;2023-07-13T00:11:54;16.20;99.90
77305;DHT22;66364;52.622;7.746;2023-07-13T00:13:57;16.20;99.90
77305;DHT22;66364;52.622;7.746;2023-07-13T00:15:58;16.10;99.90
77305;DHT22;66364;52.622;7.746;2023-07-13T00:17:59;16.20;99.90
77305;DHT22;66364;52.622;7.746;2023-07-13T00:20:01;16.20;99.90
77305;DHT22;66364;52.622;7.746;2023-07-13T00:22:01;15.80;99.90
77305;DHT22;66364;52.622;7.746;2023-07-13T00:24:03;15.90;99.90
77305;DHT22;66364;52.622;7.746;2023-07-13T00:26:06;15.90;99.90
77305;DHT22;66364;52.622;7.746;2023-07-13T00:28:08;15.90;99.90
77305;DHT22;66364;52.622;7.746;2023-07-13T00:30:11;15.90;99.90
77305;DHT22;66364;52.622;7.746;2023-07-13T00:32:12;15.90;99.90
77305;DHT22;66364;52.622;7.746;2023-07-13T00:34:13;16.00;99.90
77305;DHT22;66364;52.622;7.746;2023-07-13T00:36:14;16.00;99.90
77305;DHT22;66364;52.622;7.746;2023-07-13T00:38:16;15.90;99.90
77305;DHT22;66364;52.622;7.746;2023-07-13T00:40:19;16.00;99.90
77305;DHT22;66364;52.622;7.746;2023-07-13T00:42:22;15.90;99.90
77305;DHT22;66364;52.622;7.746;2023-07-13T00:44:30;15.90;99.90
77305;DHT22;66364;52.622;7.746;2023-07-13T00:46:34;15.70;99.90
77305;DHT22;66364;52.622;7.746;2023-07-13T00:48:36;16.00;99.90
77305;DHT22;66364;52.622;7.746;2023-07-13T00:50:38;16.20;99.90
77305;DHT22;66364;52.622;7.746;2023-07-13T00:52:42;15.80;99.90
77305;DHT22;66364;52.622;7.746;2023-07-13T00:54:45;16.20;99.90
77305;DHT22;66364;52.622;7.746;2023-07-13T00:56:48;16.00;99.90
77305;DHT22;66364;52.622;7.746;2023-07-13T00:58:50;15.90;99.90
77305;DHT22;66364;52.622;7.746;2023-07-13T01:00:52;15.80;99.90
77305;DHT22;66364;52.622;7.746;2023-07-13T01:02:53;15.70;99.90
77305;DHT22;66364;52.622;7.746;2023-07-13T01:04:55;15.70;99.90
77305;DHT22;66364;52.622;7.746;2023-07-13T01:06:57;15.70;99.90
77305;DHT22;66364;52.622;7.746;2023-07-13T01:08:59;15.70;99.90
77305;DHT22;66364;52.622;7.746;2023-07-13T01:11:00;15.80;99.90
77305;DHT22;66364;52.622;7.746;2023-07-13T01:13:01;15.80;99.90
77305;DHT22;66364;52.622;7.746;2023-07-13T01:15:03;15.70;99.90
77305;DHT22;66364;52.622;7.746;2023-07-13T01:17:04;15.70;99.90
77305;DHT22;66364;52.622;7.746;2023-07-13T01:19:12;15.70;99.90
77305;DHT22;66364;52.622;7.746;2023-07-13T01:21:11;15.70;99.90
77305;DHT22;66364;52.622;7.746;2023-07-13T01:23:12;15.50;99.90
77305;DHT22;66364;52.622;7.746;2023-07-13T01:25:13;15.70;99.90
77305;DHT22;66364;52.622;7.746;2023-07-13T01:27:16;15.80;99.90
77305;DHT22;66364;52.622;7.746;2023-07-13T01:29:18;15.70;99.90
77305;DHT22;66364;52.622;7.746;2023-07-13T01:31:19;15.70;99.90
77305;DHT22;66364;52.622;7.746;2023-07-13T01:33:21;15.60;99.90
77305;DHT22;66364;52.622;7.746;2023-07-13T01:35:23;15.70;99.90
77305;DHT22;66364;52.622;7.746;2023-07-13T01:37:26;15.70;99.90
77305;DHT22;66364;52.622;7.746;2023-07-13T01:39:27;15.40;99.90
77305;DHT22;66364;52.622;7.746;2023-07-13T01:41:28;15.50;99.90
77305;DHT22;66364;52.622;7.746;2023-07-13T01:43:29;15.60;99.90
77305;DHT22;66364;52.622;7.746;2023-07-13T01:45:30;15.50;99.90
77305;DHT22;66364;52.622;7.746;2023-07-13T01:47:31;15.50;99.90
77305;DHT22;66364;52.622;7.746;2023-07-13T01:49:32;15.40;99.90
77305;DHT22;66364;52.622;7.746;2023-07-13T01:51:33;15.50;99.90
77305;DHT22;66364;52.622;7.746;2023-07-13T01:53:34;15.40;99.90
77305;DHT22;66364;52.622;7.746;2023-07-13T01:55:36;15.40;99.90
77305;DHT22;66364;52.622;7.746;2023-07-13T01:57:37;15.30;99.90
77305;DHT22;66364;52.622;7.746;2023-07-13T01:59:40;15.30;99.90
77305;DHT22;66364;52.622;7.746;2023-07-13T02:01:41;15.30;99.90
77305;DHT22;66364;52.622;7.746;2023-07-13T02:03:42;15.20;99.90
77305;DHT22;66364;52.622;7.746;2023-07-13T02:05:44;15.20;99.90
77305;DHT22;66364;52.622;7.746;2023-07-13T02:07:45;15.20;99.90
77305;DHT22;66364;52.622;7.746;2023-07-13T02:09:58;15.30;99.90
77305;DHT22;66364;52.622;7.746;2023-07-13T02:11:59;15.70;99.90
77305;DHT22;66364;52.622;7.746;2023-07-13T02:14:00;15.40;99.90
77305;DHT22;66364;52.622;7.746;2023-07-13T02:16:02;15.40;99.90
77305;DHT22;66364;52.622;7.746;2023-07-13T02:18:03;15.30;99.90
77305;DHT22;66364;52.622;7.746;2023-07-13T02:20:05;15.30;99.90
77305;DHT22;66364;52.622;7.746;2023-07-13T02:22:07;15.30;99.90
77305;DHT22;66364;52.622;7.746;2023-07-13T02:24:08;15.30;99.90
77305;DHT22;66364;52.622;7.746;2023-07-13T02:26:10;15.00;99.90
77305;DHT22;66364;52.622;7.746;2023-07-13T02:28:11;15.30;99.90
77305;DHT22;66364;52.622;7.746;2023-07-13T02:30:12;15.40;99.90
77305;DHT22;66364;52.622;7.746;2023-07-13T02:32:13;15.30;99.90
77305;DHT22;66364;52.622;7.746;2023-07-13T02:34:14;15.10;99.90
77305;DHT22;66364;52.622;7.746;2023-07-13T02:36:16;15.40;99.90
77305;DHT22;66364;52.622;7.746;2023-07-13T02:38:18;15.30;99.90
77305;DHT22;66364;52.622;7.746;2023-07-13T02:40:19;15.20;99.90
77305;DHT22;66364;52.622;7.746;2023-07-13T02:42:20;15.30;99.90
77305;DHT22;66364;52.622;7.746;2023-07-13T02:44:21;15.30;99.90
77305;DHT22;66364;52.622;7.746;2023-07-13T02:46:21;15.30;99.90
77305;DHT22;66364;52.622;7.746;2023-07-13T02:48:23;15.70;99.90
77305;DHT22;66364;52.622;7.746;2023-07-13T02:50:24;15.50;99.90
77305;DHT22;66364;52.622;7.746;2023-07-13T02:52:25;15.40;99.90
77305;DHT22;66364;52.622;7.746;2023-07-13T02:54:26;15.30;99.90
77305;DHT22;66364;52.622;7.746;2023-07-13T02:56:29;15.30;99.90
77305;DHT22;66364;52.622;7.746;2023-07-13T02:58:30;15.30;99.90
77305;DHT22;66364;52.622;7.746;2023-07-13T03:00:31;15.70;99.90
77305;DHT22;66364;52.622;7.746;2023-07-13T03:02:33;15.40;99.90
77305;DHT22;66364;52.622;7.746;2023-07-13T03:04:38;15.30;99.90
77305;DHT22;66364;52.622;7.746;2023-07-13T03:06:39;15.30;99.90
77305;DHT22;66364;52.622;7.746;2023-07-13T03:08:40;15.50;99.90
77305;DHT22;66364;52.622;7.746;2023-07-13T03:10:41;15.30;99.90
77305;DHT22;66364;52.622;7.746;2023-07-13T03:12:42;15.60;99.90
77305;DHT22;66364;52.622;7.746;2023-07-13T03:14:43;15.30;99.90
77305;DHT22;66364;52.622;7.746;2023-07-13T03:16:44;15.70;99.90
77305;DHT22;66364;52.622;7.746;2023-07-13T03:18:46;15.30;99.90
77305;DHT22;66364;52.622;7.746;2023-07-13T03:20:50;15.30;99.90
77305;DHT22;66364;52.622;7.746;2023-07-13T03:22:51;15.40;99.90
77305;DHT22;66364;52.622;7.746;2023-07-13T03:24:51;15.30;99.90
77305;DHT22;66364;52.622;7.746;2023-07-13T03:26:52;15.60;99.90
77305;DHT22;66364;52.622;7.746;2023-07-13T03:29:00;15.30;99.90
77305;DHT22;66364;52.622;7.746;2023-07-13T03:31:14;15.30;99.90
77305;DHT22;66364;52.622;7.746;2023-07-13T03:33:11;15.30;99.90
77305;DHT22;66364;52.622;7.746;2023-07-13T03:35:12;15.40;99.90
77305;DHT22;66364;52.622;7.746;2023-07-13T03:37:13;15.30;99.90
77305;DHT22;66364;52.622;7.746;2023-07-13T03:39:14;15.30;99.90
77305;DHT22;66364;52.622;7.746;2023-07-13T03:41:15;15.50;99.90
77305;DHT22;66364;52.622;7.746;2023-07-13T03:43:20;15.30;99.90
77305;DHT22;66364;52.622;7.746;2023-07-13T03:45:21;15.30;99.90
77305;DHT22;66364;52.622;7.746;2023-07-13T03:47:22;15.50;99.90
77305;DHT22;66364;52.622;7.746;2023-07-13T03:49:23;15.10;99.90
77305;DHT22;66364;52.622;7.746;2023-07-13T03:51:25;15.40;99.90
77305;DHT22;66364;52.622;7.746;2023-07-13T03:53:26;15.50;99.90
77305;DHT22;66364;52.622;7.746;2023-07-13T03:55:27;15.30;99.90
77305;DHT22;66364;52.622;7.746;2023-07-13T03:57:28;15.40;99.90
77305;DHT22;66364;52.622;7.746;2023-07-13T03:59:29;15.20;99.90
77305;DHT22;66364;52.622;7.746;2023-07-13T04:01:31;15.40;99.90
77305;DHT22;66364;52.622;7.746;2023-07-13T04:03:33;15.30;99.90
77305;DHT22;66364;52.622;7.746;2023-07-13T04:05:35;15.30;99.90
77305;DHT22;66364;52.622;7.746;2023-07-13T04:07:37;15.30;99.90
77305;DHT22;66364;52.622;7.746;2023-07-13T04:09:39;15.30;99.90
77305;DHT22;66364;52.622;7.746;2023-07-13T04:11:41;15.30;99.90
77305;DHT22;66364;52.622;7.746;2023-07-13T04:13:42;15.20;99.90
77305;DHT22;66364;52.622;7.746;2023-07-13T04:15:44;15.10;99.90
77305;DHT22;66364;52.622;7.746;2023-07-13T04:17:46;15.20;99.90
77305;DHT22;66364;52.622;7.746;2023-07-13T04:19:47;15.20;99.90
77305;DHT22;66364;52.622;7.746;2023-07-13T04:21:49;15.30;99.90
77305;DHT22;66364;52.622;7.746;2023-07-13T04:23:50;15.30;99.90
77305;DHT22;66364;52.622;7.746;2023-07-13T04:25:52;15.00;99.90
77305;DHT22;66364;52.622;7.746;2023-07-13T04:27:54;15.20;99.90
77305;DHT22;66364;52.622;7.746;2023-07-13T04:29:55;15.20;99.90
77305;DHT22;66364;52.622;7.746;2023-07-13T04:31:56;15.10;99.90
77305;DHT22;66364;52.622;7.746;2023-07-13T04:33:58;15.30;99.90
77305;DHT22;66364;52.622;7.746;2023-07-13T04:35:59;14.90;99.90
77305;DHT22;66364;52.622;7.746;2023-07-13T04:38:00;15.00;99.90
77305;DHT22;66364;52.622;7.746;2023-07-13T04:40:03;15.20;99.90
77305;DHT22;66364;52.622;7.746;2023-07-13T04:42:05;15.30;99.90
77305;DHT22;66364;52.622;7.746;2023-07-13T04:44:06;15.30;99.90
77305;DHT22;66364;52.622;7.746;2023-07-13T04:46:15;15.30;99.90
77305;DHT22;66364;52.622;7.746;2023-07-13T04:48:16;15.50;99.90
77305;DHT22;66364;52.622;7.746;2023-07-13T04:50:17;15.50;99.90
77305;DHT22;66364;52.622;7.746;2023-07-13T04:52:18;15.30;99.90
77305;DHT22;66364;52.622;7.746;2023-07-13T04:54:19;15.20;99.90
77305;DHT22;66364;52.622;7.746;2023-07-13T04:56:20;15.50;99.90
77305;DHT22;66364;52.622;7.746;2023-07-13T04:58:22;15.60;99.90
77305;DHT22;66364;52.622;7.746;2023-07-13T05:00:24;15.40;99.90
77305;DHT22;66364;52.622;7.746;2023-07-13T05:02:27;15.50;99.90
77305;DHT22;66364;52.622;7.746;2023-07-13T05:04:28;15.30;99.90
77305;DHT22;66364;52.622;7.746;2023-07-13T05:06:29;15.40;99.90
77305;DHT22;66364;52.622;7.746;2023-07-13T05:08:30;15.40;99.90
77305;DHT22;66364;52.622;7.746;2023-07-13T05:10:31;15.50;99.90
77305;DHT22;66364;52.622;7.746;2023-07-13T05:12:32;15.60;99.90
77305;DHT22;66364;52.622;7.746;2023-07-13T05:14:33;15.40;99.90
77305;DHT22;66364;52.622;7.746;2023-07-13T05:16:35;15.50;99.90
77305;DHT22;66364;52.622;7.746;2023-07-13T05:18:36;15.60;99.90
77305;DHT22;66364;52.622;7.746;2023-07-13T05:20:38;15.70;99.90
77305;DHT22;66364;52.622;7.746;2023-07-13T05:22:39;15.60;99.90
77305;DHT22;66364;52.622;7.746;2023-07-13T05:24:40;15.60;99.90
77305;DHT22;66364;52.622;7.746;2023-07-13T05:26:41;15.60;99.90
77305;DHT22;66364;52.622;7.746;2023-07-13T05:28:42;15.50;99.90
77305;DHT22;66364;52.622;7.746;2023-07-13T05:30:47;15.70;99.90
77305;DHT22;66364;52.622;7.746;2023-07-13T05:32:49;15.60;99.90
77305;DHT22;66364;52.622;7.746;2023-07-13T05:34:50;15.70;99.90
77305;DHT22;66364;52.622;7.746;2023-07-13T05:36:51;15.70;99.90
77305;DHT22;66364;52.622;7.746;2023-07-13T05:38:51;15.80;99.90
77305;DHT22;66364;52.622;7.746;2023-07-13T05:40:54;15.90;99.90
77305;DHT22;66364;52.622;7.746;2023-07-13T05:42:55;15.90;99.90
77305;DHT22;66364;52.622;7.746;2023-07-13T05:44:57;16.20;99.90
77305;DHT22;66364;52.622;7.746;2023-07-13T05:47:00;16.10;99.90
77305;DHT22;66364;52.622;7.746;2023-07-13T05:49:01;16.30;99.90
77305;DHT22;66364;52.622;7.746;2023-07-13T05:51:03;16.30;99.90
77305;DHT22;66364;52.622;7.746;2023-07-13T05:53:04;16.20;99.90
77305;DHT22;66364;52.622;7.746;2023-07-13T05:55:06;16.40;99.90
77305;DHT22;66364;52.622;7.746;2023-07-13T05:57:15;16.20;99.90
77305;DHT22;66364;52.622;7.746;2023-07-13T05:59:17;16.30;99.90
77305;DHT22;66364;52.622;7.746;2023-07-13T06:01:20;16.20;99.90
77305;DHT22;66364;52.622;7.746;2023-07-13T06:03:21;16.10;99.90
77305;DHT22;66364;52.622;7.746;2023-07-13T06:05:22;16.10;99.90
77305;DHT22;66364;52.622;7.746;2023-07-13T06:07:24;16.20;99.90
77305;DHT22;66364;52.622;7.746;2023-07-13T06:09:24;16.20;99.90
77305;DHT22;66364;52.622;7.746;2023-07-13T06:11:28;16.20;99.90
77305;DHT22;66364;52.622;7.746;2023-07-13T06:13:36;16.20;99.90
77305;DHT22;66364;52.622;7.746;2023-07-13T06:15:37;16.40;99.90
77305;DHT22;66364;52.622;7.746;2023-07-13T06:17:38;16.20;99.90
77305;DHT22;66364;52.622;7.746;2023-07-13T06:19:39;16.30;99.90
77305;DHT22;66364;52.622;7.746;2023-07-13T06:21:41;16.40;99.90
77305;DHT22;66364;52.622;7.746;2023-07-13T06:23:43;16.40;99.90
77305;DHT22;66364;52.622;7.746;2023-07-13T06:25:44;16.50;99.90
77305;DHT22;66364;52.622;7.746;2023-07-13T06:27:45;16.60;99.90
77305;DHT22;66364;52.622;7.746;2023-07-13T06:29:46;16.90;99.90
77305;DHT22;66364;52.622;7.746;2023-07-13T06:31:47;16.60;99.90
77305;DHT22;66364;52.622;7.746;2023-07-13T06:33:49;16.70;99.90
77305;DHT22;66364;52.622;7.746;2023-07-13T06:35:50;16.80;99.90
77305;DHT22;66364;52.622;7.746;2023-07-13T06:37:51;16.90;99.90
77305;DHT22;66364;52.622;7.746;2023-07-13T06:39:52;17.10;99.90
77305;DHT22;66364;52.622;7.746;2023-07-13T06:41:52;17.20;99.90
77305;DHT22;66364;52.622;7.746;2023-07-13T06:43:54;17.10;99.90
77305;DHT22;66364;52.622;7.746;2023-07-13T06:45:55;17.30;99.90
77305;DHT22;66364;52.622;7.746;2023-07-13T06:47:56;17.20;99.90
77305;DHT22;66364;52.622;7.746;2023-07-13T06:49:57;17.30;99.90
77305;DHT22;66364;52.622;7.746;2023-07-13T06:51:58;17.30;99.90
77305;DHT22;66364;52.622;7.746;2023-07-13T06:53:59;17.30;99.90
77305;DHT22;66364;52.622;7.746;2023-07-13T06:56:01;17.40;99.90
77305;DHT22;66364;52.622;7.746;2023-07-13T06:58:02;17.50;99.90
77305;DHT22;66364;52.622;7.746;2023-07-13T07:00:05;17.70;99.90
77305;DHT22;66364;52.622;7.746;2023-07-13T07:02:09;17.80;99.90
77305;DHT22;66364;52.622;7.746;2023-07-13T07:04:09;17.60;99.90
77305;DHT22;66364;52.622;7.746;2023-07-13T07:06:21;18.10;99.90
77305;DHT22;66364;52.622;7.746;2023-07-13T07:08:19;18.00;99.90
77305;DHT22;66364;52.622;7.746;2023-07-13T07:10:20;18.10;99.90
77305;DHT22;66364;52.622;7.746;2023-07-13T07:12:21;18.10;99.90
77305;DHT22;66364;52.622;7.746;2023-07-13T07:14:22;18.20;99.90
77305;DHT22;66364;52.622;7.746;2023-07-13T07:16:24;18.20;99.90
77305;DHT22;66364;52.622;7.746;2023-07-13T07:18:26;18.30;99.90
77305;DHT22;66364;52.622;7.746;2023-07-13T07:20:27;18.20;99.90
77305;DHT22;66364;52.622;7.746;2023-07-13T07:22:28;18.20;99.90
77305;DHT22;66364;52.622;7.746;2023-07-13T07:24:29;18.30;99.90
77305;DHT22;66364;52.622;7.746;2023-07-13T07:26:33;18.10;99.90
77305;DHT22;66364;52.622;7.746;2023-07-13T07:28:34;18.50;99.90
77305;DHT22;66364;52.622;7.746;2023-07-13T07:30:35;18.50;99.90
77305;DHT22;66364;52.622;7.746;2023-07-13T07:32:36;18.40;99.90
77305;DHT22;66364;52.622;7.746;2023-07-13T07:34:37;18.20;99.90
77305;DHT22;66364;52.622;7.746;2023-07-13T07:36:38;18.00;99.90
77305;DHT22;66364;52.622;7.746;2023-07-13T07:38:39;18.10;99.90
77305;DHT22;66364;52.622;7.746;2023-07-13T07:40:41;18.30;99.90
77305;DHT22;66364;52.622;7.746;2023-07-13T07:42:42;18.50;99.90
77305;DHT22;66364;52.622;7.746;2023-07-13T07:44:43;18.80;99.90
77305;DHT22;66364;52.622;7.746;2023-07-13T07:46:44;19.20;99.90
77305;DHT22;66364;52.622;7.746;2023-07-13T07:48:45;19.30;99.90
77305;DHT22;66364;52.622;7.746;2023-07-13T07:50:46;19.40;99.90
77305;DHT22;66364;52.622;7.746;2023-07-13T07:52:47;19.80;99.90
77305;DHT22;66364;52.622;7.746;2023-07-13T07:54:48;19.50;99.90
77305;DHT22;66364;52.622;7.746;2023-07-13T07:56:49;19.60;99.90
77305;DHT22;66364;52.622;7.746;2023-07-13T07:58:50;19.70;99.90
77305;DHT22;66364;52.622;7.746;2023-07-13T08:01:08;19.60;99.90
77305;DHT22;66364;52.622;7.746;2023-07-13T08:03:11;19.70;99.90
77305;DHT22;66364;52.622;7.746;2023-07-13T08:05:12;19.00;99.90
77305;DHT22;66364;52.622;7.746;2023-07-13T08:07:13;19.00;99.90
77305;DHT22;66364;52.622;7.746;2023-07-13T08:09:14;19.30;99.90
77305;DHT22;66364;52.622;7.746;2023-07-13T08:11:16;19.50;99.90
77305;DHT22;66364;52.622;7.746;2023-07-13T08:13:17;19.80;99.90
77305;DHT22;66364;52.622;7.746;2023-07-13T08:15:18;19.60;99.90
77305;DHT22;66364;52.622;7.746;2023-07-13T08:17:20;19.60;99.90
77305;DHT22;66364;52.622;7.746;2023-07-13T08:19:21;19.70;99.90
77305;DHT22;66364;52.622;7.746;2023-07-13T08:21:22;19.30;99.90
77305;DHT22;66364;52.622;7.746;2023-07-13T08:23:23;19.20;99.90
77305;DHT22;66364;52.622;7.746;2023-07-13T08:25:24;19.40;99.90
77305;DHT22;66364;52.622;7.746;2023-07-13T08:27:26;19.40;99.90
77305;DHT22;66364;52.622;7.746;2023-07-13T08:29:27;19.60;99.90
77305;DHT22;66364;52.622;7.746;2023-07-13T08:31:28;19.90;99.90
77305;DHT22;66364;52.622;7.746;2023-07-13T08:33:30;20.30;99.90
77305;DHT22;66364;52.622;7.746;2023-07-13T08:35:31;20.20;99.90
77305;DHT22;66364;52.622;7.746;2023-07-13T08:37:32;20.20;99.90
77305;DHT22;66364;52.622;7.746;2023-07-13T08:39:33;20.00;99.90
77305;DHT22;66364;52.622;7.746;2023-07-13T08:41:35;20.10;99.90
77305;DHT22;66364;52.622;7.746;2023-07-13T08:43:37;20.30;99.90
77305;DHT22;66364;52.622;7.746;2023-07-13T08:45:47;20.30;99.90
77305;DHT22;66364;52.622;7.746;2023-07-13T08:47:57;20.20;99.90
77305;DHT22;66364;52.622;7.746;2023-07-13T08:49:57;20.10;99.90
77305;DHT22;66364;52.622;7.746;2023-07-13T08:56:35;19.80;99.90
77305;DHT22;66364;52.622;7.746;2023-07-13T08:58:37;19.80;99.90
77305;DHT22;66364;52.622;7.746;2023-07-13T09:03:29;20.00;99.90
77305;DHT22;66364;52.622;7.746;2023-07-13T09:05:36;20.30;99.90
77305;DHT22;66364;52.622;7.746;2023-07-13T09:10:20;20.50;99.90
77305;DHT22;66364;52.622;7.746;2023-07-13T09:12:43;20.90;99.90
77305;DHT22;66364;52.622;7.746;2023-07-13T09:14:45;21.30;99.90
77305;DHT22;66364;52.622;7.746;2023-07-13T09:16:47;21.60;99.90
77305;DHT22;66364;52.622;7.746;2023-07-13T09:18:51;21.60;99.90
77305;DHT22;66364;52.622;7.746;2023-07-13T09:21:00;21.50;99.90
77305;DHT22;66364;52.622;7.746;2023-07-13T09:23:05;21.30;99.90
77305;DHT22;66364;52.622;7.746;2023-07-13T09:25:29;21.30;99.90
77305;DHT22;66364;52.622;7.746;2023-07-13T09:27:43;21.20;99.90
77305;DHT22;66364;52.622;7.746;2023-07-13T09:29:49;21.10;99.90
77305;DHT22;66364;52.622;7.746;2023-07-13T09:31:53;21.10;99.90
77305;DHT22;66364;52.622;7.746;2023-07-13T09:33:55;21.10;99.90
77305;DHT22;66364;52.622;7.746;2023-07-13T09:35:59;21.40;99.90
77305;DHT22;66364;52.622;7.746;2023-07-13T09:38:15;21.40;99.90
77305;DHT22;66364;52.622;7.746;2023-07-13T09:40:24;21.20;99.90
77305;DHT22;66364;52.622;7.746;2023-07-13T09:42:25;21.30;99.90
77305;DHT22;66364;52.622;7.746;2023-07-13T09:44:33;21.70;99.90
77305;DHT22;66364;52.622;7.746;2023-07-13T09:46:34;21.80;99.90
77305;DHT22;66364;52.622;7.746;2023-07-13T09:48:37;22.10;99.90
77305;DHT22;66364;52.622;7.746;2023-07-13T09:50:38;22.30;99.90
77305;DHT22;66364;52.622;7.746;2023-07-13T09:52:47;22.40;99.90
77305;DHT22;66364;52.622;7.746;2023-07-13T09:54:50;22.60;97.10
77305;DHT22;66364;52.622;7.746;2023-07-13T09:56:55;22.40;97.20
77305;DHT22;66364;52.622;7.746;2023-07-13T09:58:58;22.90;97.60
77305;DHT22;66364;52.622;7.746;2023-07-13T10:01:01;22.90;92.20
77305;DHT22;66364;52.622;7.746;2023-07-13T10:03:09;22.20;94.30
77305;DHT22;66364;52.622;7.746;2023-07-13T10:05:13;22.10;95.90
77305;DHT22;66364;52.622;7.746;2023-07-13T10:07:15;22.70;91.60
77305;DHT22;66364;52.622;7.746;2023-07-13T10:09:17;23.30;92.80
77305;DHT22;66364;52.622;7.746;2023-07-13T10:11:20;23.60;88.70
77305;DHT22;66364;52.622;7.746;2023-07-13T10:13:33;23.70;84.80
77305;DHT22;66364;52.622;7.746;2023-07-13T10:15:35;23.50;83.50
77305;DHT22;66364;52.622;7.746;2023-07-13T10:17:37;22.80;85.80
77305;DHT22;66364;52.622;7.746;2023-07-13T10:19:40;23.20;87.60
77305;DHT22;66364;52.622;7.746;2023-07-13T10:21:50;23.00;83.90
77305;DHT22;66364;52.622;7.746;2023-07-13T10:23:59;22.20;84.90
77305;DHT22;66364;52.622;7.746;2023-07-13T10:26:00;21.50;89.90
77305;DHT22;66364;52.622;7.746;2023-07-13T10:28:33;21.20;91.30
77305;DHT22;66364;52.622;7.746;2023-07-13T10:30:35;21.40;92.60
77305;DHT22;66364;52.622;7.746;2023-07-13T10:32:38;21.10;90.40
77305;DHT22;66364;52.622;7.746;2023-07-13T10:34:40;21.00;92.70
77305;DHT22;66364;52.622;7.746;2023-07-13T10:36:49;20.90;94.20
77305;DHT22;66364;52.622;7.746;2023-07-13T10:38:51;20.70;99.90
77305;DHT22;66364;52.622;7.746;2023-07-13T10:40:57;20.50;99.90
77305;DHT22;66364;52.622;7.746;2023-07-13T10:43:01;20.30;99.90
77305;DHT22;66364;52.622;7.746;2023-07-13T10:45:19;20.40;99.90
77305;DHT22;66364;52.622;7.746;2023-07-13T10:47:17;19.80;99.90
77305;DHT22;66364;52.622;7.746;2023-07-13T10:49:22;18.60;99.90
77305;DHT22;66364;52.622;7.746;2023-07-13T10:51:24;18.00;99.90
77305;DHT22;66364;52.622;7.746;2023-07-13T10:53:30;17.40;99.90
77305;DHT22;66364;52.622;7.746;2023-07-13T10:55:37;17.00;99.90
77305;DHT22;66364;52.622;7.746;2023-07-13T10:57:43;16.90;99.90
77305;DHT22;66364;52.622;7.746;2023-07-13T11:02:22;16.80;99.90
77305;DHT22;66364;52.622;7.746;2023-07-13T11:04:21;16.90;99.90
77305;DHT22;66364;52.622;7.746;2023-07-13T11:06:39;16.10;99.90
77305;DHT22;66364;52.622;7.746;2023-07-13T11:08:51;16.20;99.90
77305;DHT22;66364;52.622;7.746;2023-07-13T11:10:54;16.10;99.90
77305;DHT22;66364;52.622;7.746;2023-07-13T11:12:56;16.20;99.90
77305;DHT22;66364;52.622;7.746;2023-07-13T11:15:04;16.30;99.90
77305;DHT22;66364;52.622;7.746;2023-07-13T11:19:40;16.30;99.90
77305;DHT22;66364;52.622;7.746;2023-07-13T11:22:10;16.20;99.90
77305;DHT22;66364;52.622;7.746;2023-07-13T11:24:15;15.90;99.90
77305;DHT22;66364;52.622;7.746;2023-07-13T11:28:47;16.00;99.90
77305;DHT22;66364;52.622;7.746;2023-07-13T11:33:27;16.10;99.90
77305;DHT22;66364;52.622;7.746;2023-07-13T11:35:28;16.20;99.90
77305;DHT22;66364;52.622;7.746;2023-07-13T11:37:30;16.20;99.90
77305;DHT22;66364;52.622;7.746;2023-07-13T11:39:36;16.20;99.90
77305;DHT22;66364;52.622;7.746;2023-07-13T11:41:51;16.20;99.90
77305;DHT22;66364;52.622;7.746;2023-07-13T11:43:55;16.40;99.90
77305;DHT22;66364;52.622;7.746;2023-07-13T11:45:57;16.60;99.90
77305;DHT22;66364;52.622;7.746;2023-07-13T11:47:59;16.80;99.90
77305;DHT22;66364;52.622;7.746;2023-07-13T11:50:00;16.60;99.90
77305;DHT22;66364;52.622;7.746;2023-07-13T11:52:02;16.50;99.90
77305;DHT22;66364;52.622;7.746;2023-07-13T11:54:06;16.50;99.90
77305;DHT22;66364;52.622;7.746;2023-07-13T11:56:07;16.50;99.90
77305;DHT22;66364;52.622;7.746;2023-07-13T11:58:09;16.40;99.90
77305;DHT22;66364;52.622;7.746;2023-07-13T12:00:23;16.30;99.90
77305;DHT22;66364;52.622;7.746;2023-07-13T12:02:35;16.00;99.90
77305;DHT22;66364;52.622;7.746;2023-07-13T12:04:36;16.10;99.90
77305;DHT22;66364;52.622;7.746;2023-07-13T12:06:37;16.10;99.90
77305;DHT22;66364;52.622;7.746;2023-07-13T12:08:39;16.20;99.90
77305;DHT22;66364;52.622;7.746;2023-07-13T12:10:40;15.90;99.90
77305;DHT22;66364;52.622;7.746;2023-07-13T12:12:56;16.30;99.90
77305;DHT22;66364;52.622;7.746;2023-07-13T12:14:57;16.00;99.90
77305;DHT22;66364;52.622;7.746;2023-07-13T12:16:58;16.20;99.90
77305;DHT22;66364;52.622;7.746;2023-07-13T12:19:00;16.10;99.90
77305;DHT22;66364;52.622;7.746;2023-07-13T12:21:02;16.00;99.90
77305;DHT22;66364;52.622;7.746;2023-07-13T12:23:05;15.90;99.90
77305;DHT22;66364;52.622;7.746;2023-07-13T12:25:11;15.90;99.90
77305;DHT22;66364;52.622;7.746;2023-07-13T12:27:24;15.90;99.90
77305;DHT22;66364;52.622;7.746;2023-07-13T12:29:26;16.20;99.90
77305;DHT22;66364;52.622;7.746;2023-07-13T12:31:37;16.10;99.90
77305;DHT22;66364;52.622;7.746;2023-07-13T12:33:39;16.40;99.90
77305;DHT22;66364;52.622;7.746;2023-07-13T12:35:43;16.80;99.90
77305;DHT22;66364;52.622;7.746;2023-07-13T12:37:46;17.50;99.90
77305;DHT22;66364;52.622;7.746;2023-07-13T12:39:49;18.10;99.90
77305;DHT22;66364;52.622;7.746;2023-07-13T12:41:52;18.60;99.90
77305;DHT22;66364;52.622;7.746;2023-07-13T12:43:54;18.80;99.90
77305;DHT22;66364;52.622;7.746;2023-07-13T12:46:02;19.50;99.90
77305;DHT22;66364;52.622;7.746;2023-07-13T12:48:12;19.80;99.90
77305;DHT22;66364;52.622;7.746;2023-07-13T12:50:20;19.80;99.90
77305;DHT22;66364;52.622;7.746;2023-07-13T12:52:27;20.10;99.90
77305;DHT22;66364;52.622;7.746;2023-07-13T12:54:27;20.20;99.90
77305;DHT22;66364;52.622;7.746;2023-07-13T12:56:28;20.10;99.90
77305;DHT22;66364;52.622;7.746;2023-07-13T12:58:38;20.10;99.90
77305;DHT22;66364;52.622;7.746;2023-07-13T13:00:47;20.10;99.90
77305;DHT22;66364;52.622;7.746;2023-07-13T13:02:49;20.10;99.90
77305;DHT22;66364;52.622;7.746;2023-07-13T13:04:51;19.90;99.90
77305;DHT22;66364;52.622;7.746;2023-07-13T13:07:03;19.80;99.90
77305;DHT22;66364;52.622;7.746;2023-07-13T13:09:15;20.20;99.90
77305;DHT22;66364;52.622;7.746;2023-07-13T13:11:18;20.50;99.90
77305;DHT22;66364;52.622;7.746;2023-07-13T13:13:20;20.60;99.90
77305;DHT22;66364;52.622;7.746;2023-07-13T13:15:25;20.70;99.90
77305;DHT22;66364;52.622;7.746;2023-07-13T13:17:29;20.60;99.90